Time;durP1;ratioP1;P1;durP2;ratioP2;P2;SDS_P1;SDS_P2;PMS_P1;PMS_P2;Temp;Humidity;BMP_temperature;BMP_pressure;BME280_temperature;BME280_humidity;BME280_pressure;Samples;Min_cycle;Max_cycle;Signal;HPM_P1;HPM_P2
2021/05/26 00:02:15;;;;;;;1999.90;999.90;;;10.70;99.90;;;;;;5054554;28;20207;-63
2021/05/26 00:04:41;;;;;;;1999.90;999.90;;;10.70;99.90;;;;;;5054069;28;20213;-47
2021/05/26 00:07:08;;;;;;;1999.90;999.90;;;10.70;99.90;;;;;;5054624;28;20169;-46
2021/05/26 00:09:35;;;;;;;1999.90;999.90;;;10.70;99.90;;;;;;5054651;28;20169;-57
2021/05/26 00:12:02;;;;;;;1999.90;999.90;;;10.70;99.90;;;;;;5054411;28;20168;-46
2021/05/26 00:14:29;;;;;;;1999.90;999.90;;;10.60;99.90;;;;;;5054296;28;20226;-46
2021/05/26 00:16:56;;;;;;;1999.90;999.90;;;10.60;99.90;;;;;;5054239;28;20161;-53
2021/05/26 00:19:23;;;;;;;1999.90;999.90;;;10.50;99.90;;;;;;5054232;28;20195;-46
2021/05/26 00:21:50;;;;;;;1999.90;999.90;;;10.50;99.90;;;;;;5053991;28;20312;-46
2021/05/26 00:24:16;;;;;;;1999.90;999.90;;;10.50;99.90;;;;;;5054063;28;20232;-63
2021/05/26 00:26:46;;;;;;;1999.90;999.90;;;10.40;99.90;;;;;;5054154;28;20165;-46
2021/05/26 00:29:13;;;;;;;1999.90;999.90;;;10.40;99.90;;;;;;5054006;28;20180;-46
2021/05/26 00:31:40;;;;;;;1999.90;999.90;;;10.40;99.90;;;;;;5054122;28;20165;-47
2021/05/26 00:34:07;;;;;;;1999.90;999.90;;;10.40;99.90;;;;;;5053880;28;20197;-45
2021/05/26 00:36:34;;;;;;;1999.90;999.90;;;10.40;99.90;;;;;;5053842;28;20684;-46
2021/05/26 00:39:01;;;;;;;1999.90;999.90;;;10.30;99.90;;;;;;5053850;28;20169;-46
2021/05/26 00:41:31;;;;;;;1999.90;999.90;;;10.30;99.90;;;;;;5053767;28;20207;-46
2021/05/26 00:43:58;;;;;;;1999.90;999.90;;;10.30;99.90;;;;;;5053639;28;20610;-47
2021/05/26 00:46:25;;;;;;;1999.90;999.90;;;10.20;99.90;;;;;;5053694;28;20174;-46
2021/05/26 00:48:52;;;;;;;1999.90;999.90;;;10.20;99.90;;;;;;5053662;28;20184;-48
2021/05/26 00:51:19;;;;;;;1999.90;999.90;;;10.20;99.90;;;;;;5053565;28;20196;-45
2021/05/26 00:53:46;;;;;;;1999.90;999.90;;;10.20;99.90;;;;;;5053581;28;20173;-49
2021/05/26 00:56:13;;;;;;;1999.90;999.90;;;10.20;99.90;;;;;;5053398;28;20184;-46
2021/05/26 00:58:40;;;;;;;1999.90;999.90;;;10.10;99.90;;;;;;5053550;28;20207;-45
2021/05/26 01:01:07;;;;;;;1999.90;999.90;;;10.10;99.90;;;;;;5053466;28;20176;-45
2021/05/26 01:03:34;;;;;;;1999.90;999.90;;;10.10;99.90;;;;;;5053394;28;20213;-47
2021/05/26 01:06:01;;;;;;;1999.90;999.90;;;10.00;99.90;;;;;;5053180;28;20244;-46
2021/05/26 01:08:28;;;;;;;1999.90;999.90;;;10.10;99.90;;;;;;5053159;28;20181;-45
2021/05/26 01:10:55;;;;;;;1999.90;999.90;;;10.00;99.90;;;;;;5053332;28;20207;-45
2021/05/26 01:13:24;;;;;;;1999.90;999.90;;;10.00;99.90;;;;;;5052890;28;20177;-45
2021/05/26 01:15:51;;;;;;;1999.90;999.90;;;10.00;99.90;;;;;;5053006;28;20177;-46
2021/05/26 01:18:29;;;;;;;1999.90;999.90;;;10.10;99.90;;;;;;5053468;28;20534;-45
2021/05/26 01:20:59;;;;;;;1999.90;999.90;;;10.10;99.90;;;;;;5053132;28;20288;-45
2021/05/26 01:23:26;;;;;;;1999.90;999.90;;;10.10;99.90;;;;;;5035231;28;20566;-45
2021/05/26 01:25:57;;;;;;;1999.90;999.90;;;10.10;99.90;;;;;;5053106;28;20164;-45
2021/05/26 01:28:25;;;;;;;1999.90;999.90;;;10.10;99.90;;;;;;5053166;28;20252;-45
2021/05/26 01:30:52;;;;;;;1999.90;999.90;;;10.00;99.90;;;;;;5052949;28;20176;-45
2021/05/26 01:33:20;;;;;;;1999.90;999.90;;;9.90;99.90;;;;;;5052916;28;20641;-47
2021/05/26 01:35:48;;;;;;;1999.90;999.90;;;9.90;99.90;;;;;;5052805;28;20177;-46
2021/05/26 01:38:18;;;;;;;1999.90;999.90;;;9.90;99.90;;;;;;5052983;28;20260;-47
2021/05/26 01:40:45;;;;;;;1999.90;999.90;;;9.90;99.90;;;;;;5053021;28;20173;-46
2021/05/26 01:43:12;;;;;;;1999.90;999.90;;;9.80;99.90;;;;;;5052801;28;20203;-46
2021/05/26 01:45:40;;;;;;;1999.90;999.90;;;9.80;99.90;;;;;;5052967;28;20181;-47
2021/05/26 01:48:08;;;;;;;1999.90;999.90;;;9.80;99.90;;;;;;5052806;28;20181;-46
2021/05/26 01:50:35;;;;;;;1999.90;999.90;;;9.80;99.90;;;;;;5052749;28;20537;-46
2021/05/26 01:53:05;;;;;;;1999.90;999.90;;;10.00;99.90;;;;;;5052793;28;20219;-46
2021/05/26 01:55:34;;;;;;;1999.90;999.90;;;10.00;99.90;;;;;;5052738;28;20170;-46
2021/05/26 01:58:01;;;;;;;1999.90;999.90;;;10.00;99.90;;;;;;5052718;28;20219;-46
2021/05/26 02:00:28;;;;;;;1999.90;999.90;;;9.90;99.90;;;;;;5052672;28;20647;-46
2021/05/26 02:02:56;;;;;;;1999.90;999.90;;;10.00;99.90;;;;;;5052496;28;20209;-46
2021/05/26 02:05:23;;;;;;;1999.90;999.90;;;10.00;99.90;;;;;;5052404;28;20229;-47
2021/05/26 02:07:52;;;;;;;1999.90;999.90;;;10.00;99.90;;;;;;5052575;28;20168;-46
2021/05/26 02:13:06;;;;;;;1999.90;999.90;;;10.00;99.90;;;;;;5021270;28;20536;-45
2021/05/26 02:15:33;;;;;;;1999.90;999.90;;;9.90;99.90;;;;;;5052549;28;20162;-45
2021/05/26 02:18:00;;;;;;;1999.90;999.90;;;9.80;99.90;;;;;;5052494;28;20615;-45
2021/05/26 02:20:28;;;;;;;1999.90;999.90;;;9.80;99.90;;;;;;5052526;28;20176;-47
2021/05/26 02:22:55;;;;;;;1999.90;999.90;;;9.80;99.90;;;;;;5052375;28;20271;-48
2021/05/26 02:25:21;;;;;;;1999.90;999.90;;;9.90;99.90;;;;;;5053397;28;20169;-46
2021/05/26 02:27:48;;;;;;;1999.90;999.90;;;9.80;99.90;;;;;;5056446;28;20193;-46
2021/05/26 02:30:15;;;;;;;1999.90;999.90;;;9.80;99.90;;;;;;5056273;28;20181;-45
2021/05/26 02:32:42;;;;;;;1999.90;999.90;;;9.90;99.90;;;;;;5056276;28;20180;-46
2021/05/26 02:35:10;;;;;;;1999.90;999.90;;;9.80;99.90;;;;;;5056169;28;20173;-46
2021/05/26 02:37:37;;;;;;;1999.90;999.90;;;9.80;99.90;;;;;;5056182;28;20173;-45
2021/05/26 02:40:04;;;;;;;1999.90;999.90;;;9.90;99.90;;;;;;5055955;28;20235;-63
2021/05/26 02:42:31;;;;;;;1999.90;999.90;;;9.90;99.90;;;;;;5055850;28;20177;-46
2021/05/26 02:44:57;;;;;;;1999.90;999.90;;;9.80;99.90;;;;;;5056018;28;20263;-45
2021/05/26 02:47:25;;;;;;;1999.90;999.90;;;9.80;99.90;;;;;;5056208;28;20568;-47
2021/05/26 02:49:51;;;;;;;1999.90;999.90;;;9.80;99.90;;;;;;5056088;28;20174;-45
2021/05/26 02:52:18;;;;;;;1999.90;999.90;;;9.70;99.90;;;;;;5056076;28;20226;-48
2021/05/26 02:54:45;;;;;;;1999.90;999.90;;;9.70;99.90;;;;;;5055843;28;20172;-47
2021/05/26 02:57:12;;;;;;;1999.90;999.90;;;9.70;99.90;;;;;;5055807;28;20230;-45
2021/05/26 02:59:38;;;;;;;1999.90;999.90;;;9.70;99.90;;;;;;5055684;28;20530;-45
2021/05/26 03:02:05;;;;;;;1999.90;999.90;;;9.70;99.90;;;;;;5055615;28;20180;-45
2021/05/26 03:04:32;;;;;;;1999.90;999.90;;;9.70;99.90;;;;;;5055495;28;20197;-45
2021/05/26 03:06:59;;;;;;;1999.90;999.90;;;9.70;99.90;;;;;;5055420;28;20213;-45
2021/05/26 03:09:26;;;;;;;1999.90;999.90;;;9.60;99.90;;;;;;5055543;28;20534;-46
2021/05/26 03:11:52;;;;;;;1999.90;999.90;;;9.50;99.90;;;;;;5055467;28;20177;-46
2021/05/26 03:14:19;;;;;;;1999.90;999.90;;;9.50;99.90;;;;;;5055669;28;20172;-47
2021/05/26 03:16:46;;;;;;;1999.90;999.90;;;9.60;99.90;;;;;;5055406;28;20197;-45
2021/05/26 03:19:13;;;;;;;1999.90;999.90;;;9.60;99.90;;;;;;5055501;28;20170;-46
2021/05/26 03:21:40;;;;;;;1999.90;999.90;;;9.60;99.90;;;;;;5055372;28;20255;-47
2021/05/26 03:24:08;;;;;;;1999.90;999.90;;;9.60;99.90;;;;;;5055037;28;20205;-46
2021/05/26 03:26:34;;;;;;;1999.90;999.90;;;9.60;99.90;;;;;;5055237;28;20623;-46
2021/05/26 03:29:01;;;;;;;1999.90;999.90;;;9.60;99.90;;;;;;5055160;28;20165;-48
2021/05/26 03:31:31;;;;;;;1999.90;999.90;;;9.60;99.90;;;;;;5055154;28;20161;-46
2021/05/26 03:33:58;;;;;;;1999.90;999.90;;;9.50;99.90;;;;;;5054999;28;20180;-46
2021/05/26 03:36:25;;;;;;;1999.90;999.90;;;9.60;99.90;;;;;;5054882;28;20158;-46
2021/05/26 03:38:52;;;;;;;1999.90;999.90;;;9.50;99.90;;;;;;5055121;28;20199;-45
2021/05/26 03:41:18;;;;;;;1999.90;999.90;;;9.60;99.90;;;;;;5054916;28;20173;-45
2021/05/26 03:43:46;;;;;;;1999.90;999.90;;;9.60;99.90;;;;;;5054872;28;20600;-46
2021/05/26 03:46:13;;;;;;;1999.90;999.90;;;9.60;99.90;;;;;;5054951;28;20182;-46
2021/05/26 03:48:40;;;;;;;1999.90;999.90;;;9.50;99.90;;;;;;5054823;28;20165;-45
2021/05/26 03:51:07;;;;;;;1999.90;999.90;;;9.50;99.90;;;;;;5054785;28;20165;-48
2021/05/26 03:53:34;;;;;;;1999.90;999.90;;;9.40;99.90;;;;;;5054825;28;20631;-46
2021/05/26 03:56:00;;;;;;;1999.90;999.90;;;9.30;99.90;;;;;;5054698;28;20635;-46
2021/05/26 03:58:27;;;;;;;1999.90;999.90;;;9.30;99.90;;;;;;5054590;28;20230;-47
2021/05/26 04:00:55;;;;;;;1999.90;999.90;;;9.40;99.90;;;;;;5054692;28;20177;-53
2021/05/26 04:03:21;;;;;;;1999.90;999.90;;;9.50;99.90;;;;;;5054449;28;20693;-45
2021/05/26 04:05:48;;;;;;;1999.90;999.90;;;9.40;99.90;;;;;;5054239;28;20232;-47
2021/05/26 04:08:15;;;;;;;1999.90;999.90;;;9.50;99.90;;;;;;5054483;28;20734;-45
2021/05/26 04:10:42;;;;;;;1999.90;999.90;;;9.40;99.90;;;;;;5054381;28;20201;-45
2021/05/26 04:13:09;;;;;;;1999.90;999.90;;;9.40;99.90;;;;;;5054369;28;20581;-45
2021/05/26 04:15:35;;;;;;;1999.90;999.90;;;9.30;99.90;;;;;;5054348;28;20627;-51
2021/05/26 04:18:06;;;;;;;1999.90;999.90;;;9.30;99.90;;;;;;5054263;28;20209;-59
2021/05/26 04:20:33;;;;;;;1999.90;999.90;;;9.30;99.90;;;;;;5054274;28;20196;-49
2021/05/26 04:23:00;;;;;;;1999.90;999.90;;;9.40;99.90;;;;;;5053989;28;20203;-48
2021/05/26 04:25:28;;;;;;;1999.90;999.90;;;9.30;99.90;;;;;;5054209;28;20176;-45
2021/05/26 04:27:55;;;;;;;1999.90;999.90;;;9.30;99.90;;;;;;5054108;28;20169;-45
2021/05/26 04:30:22;;;;;;;1999.90;999.90;;;9.30;99.90;;;;;;5054028;28;20184;-47
2021/05/26 04:32:49;;;;;;;1999.90;999.90;;;9.30;99.90;;;;;;5053961;28;20252;-48
2021/05/26 04:35:15;;;;;;;1999.90;999.90;;;9.40;99.90;;;;;;5054203;28;20180;-47
2021/05/26 04:37:42;;;;;;;1999.90;999.90;;;9.40;99.90;;;;;;5053925;28;20174;-47
2021/05/26 04:40:10;;;;;;;1999.90;999.90;;;9.40;99.90;;;;;;5053777;28;20641;-48
2021/05/26 04:42:36;;;;;;;1999.90;999.90;;;9.40;99.90;;;;;;5053656;28;20169;-46
2021/05/26 04:45:04;;;;;;;1999.90;999.90;;;9.40;99.90;;;;;;5053646;28;20223;-46
2021/05/26 04:47:30;;;;;;;1999.90;999.90;;;9.40;99.90;;;;;;5053389;28;20169;-47
2021/05/26 04:49:57;;;;;;;1999.90;999.90;;;9.30;99.90;;;;;;5053529;28;20173;-46
2021/05/26 04:52:24;;;;;;;1999.90;999.90;;;9.40;99.90;;;;;;5053464;28;20544;-46
2021/05/26 04:54:51;;;;;;;1999.90;999.90;;;9.50;99.90;;;;;;5053585;28;20184;-44
2021/05/26 04:57:18;;;;;;;1999.90;999.90;;;9.50;99.90;;;;;;5053512;28;20226;-49
2021/05/26 04:59:45;;;;;;;1999.90;999.90;;;9.50;99.90;;;;;;5053462;28;20169;-63
2021/05/26 05:02:11;;;;;;;1999.90;999.90;;;9.50;99.90;;;;;;5053418;28;20226;-46
2021/05/26 05:04:38;;;;;;;1999.90;999.90;;;9.40;99.90;;;;;;5053050;28;20197;-52
2021/05/26 05:07:05;;;;;;;1999.90;999.90;;;9.40;99.90;;;;;;5053325;28;20271;-55
2021/05/26 05:09:32;;;;;;;1999.90;999.90;;;9.40;99.90;;;;;;5053286;28;20165;-53
2021/05/26 05:11:58;;;;;;;1999.90;999.90;;;9.50;99.90;;;;;;5053370;28;20206;-45
2021/05/26 05:14:25;;;;;;;1999.90;999.90;;;9.50;99.90;;;;;;5053172;28;20170;-46
2021/05/26 05:16:52;;;;;;;1999.90;999.90;;;9.50;99.90;;;;;;5053098;28;20232;-58
2021/05/26 05:19:19;;;;;;;1999.90;999.90;;;9.60;99.90;;;;;;5053019;28;20173;-48
2021/05/26 05:21:46;;;;;;;1999.90;999.90;;;9.60;99.90;;;;;;5052934;28;20628;-46
2021/05/26 05:24:12;;;;;;;1999.90;999.90;;;9.80;99.90;;;;;;5052721;28;20246;-46
2021/05/26 05:26:39;;;;;;;1999.90;999.90;;;9.70;99.90;;;;;;5052811;28;20244;-45
2021/05/26 05:29:06;;;;;;;1999.90;999.90;;;9.70;99.90;;;;;;5052779;28;20165;-45
2021/05/26 05:31:33;;;;;;;1999.90;999.90;;;9.70;99.90;;;;;;5052819;28;20169;-46
2021/05/26 05:34:00;;;;;;;1999.90;999.90;;;9.70;99.90;;;;;;5052885;28;20199;-45
2021/05/26 05:36:27;;;;;;;1999.90;999.90;;;9.60;99.90;;;;;;5052596;28;20173;-46
2021/05/26 05:38:54;;;;;;;1999.90;999.90;;;9.60;99.90;;;;;;5052562;28;20635;-48
2021/05/26 05:41:20;;;;;;;1999.90;999.90;;;9.60;99.90;;;;;;5052438;28;20215;-47
2021/05/26 05:43:47;;;;;;;1999.90;999.90;;;9.60;99.90;;;;;;5052400;28;20239;-45
2021/05/26 05:46:14;;;;;;;1999.90;999.90;;;9.60;99.90;;;;;;5052305;28;20276;-45
2021/05/26 05:48:41;;;;;;;1999.90;999.90;;;9.70;99.90;;;;;;5052601;28;20161;-46
2021/05/26 05:51:08;;;;;;;1999.90;999.90;;;9.70;99.90;;;;;;5052405;28;20207;-46
2021/05/26 05:53:35;;;;;;;1999.90;999.90;;;9.70;99.90;;;;;;5052483;28;20188;-46
2021/05/26 05:56:03;;;;;;;1999.90;999.90;;;9.60;99.90;;;;;;5052582;28;20172;-47
2021/05/26 05:58:30;;;;;;;1999.90;999.90;;;9.70;99.90;;;;;;5052373;28;20180;-49
2021/05/26 06:00:56;;;;;;;1999.90;999.90;;;9.70;99.90;;;;;;5056065;28;20177;-40
2021/05/26 06:30:33;;;;;;;1999.90;999.90;;;10.70;99.90;;;;;;5089427;27;20531;-37
2021/05/26 06:32:59;;;;;;;1999.90;999.90;;;11.30;99.90;;;;;;5066842;28;20545;-38
2021/05/26 06:35:26;;;;;;;1999.90;999.90;;;11.20;99.90;;;;;;5068310;28;20201;-37
2021/05/26 06:37:53;;;;;;;1999.90;999.90;;;11.10;99.90;;;;;;5065169;28;20218;-37
2021/05/26 06:40:20;;;;;;;1999.90;999.90;;;11.00;99.90;;;;;;5069354;28;20198;-38
2021/05/26 06:42:46;;;;;;;1999.90;999.90;;;11.00;99.90;;;;;;5079025;28;20202;-38
2021/05/26 06:45:13;;;;;;;1999.90;999.90;;;11.00;99.90;;;;;;5063298;28;20263;-43
2021/05/26 06:47:40;;;;;;;1999.90;999.90;;;11.00;99.90;;;;;;5067980;28;20172;-55
2021/05/26 06:50:07;;;;;;;1999.90;999.90;;;11.10;99.90;;;;;;5064373;28;20182;-38
2021/05/26 06:52:34;;;;;;;1999.90;999.90;;;11.10;99.90;;;;;;5062405;28;20663;-42
2021/05/26 06:55:01;;;;;;;1999.90;999.90;;;11.30;99.90;;;;;;5082092;28;20696;-44
2021/05/26 06:57:28;;;;;;;1999.90;999.90;;;11.30;99.90;;;;;;5068903;28;20196;-45
2021/05/26 06:59:54;;;;;;;1999.90;999.90;;;11.40;99.90;;;;;;5075764;28;20229;-48
2021/05/26 07:02:21;;;;;;;1999.90;999.90;;;11.50;99.90;;;;;;5076794;28;20537;-44
2021/05/26 07:04:48;;;;;;;1999.90;999.90;;;11.50;99.90;;;;;;5084574;28;20719;-44
2021/05/26 07:07:15;;;;;;;1999.90;999.90;;;11.40;99.90;;;;;;5088982;28;20528;-52
2021/05/26 07:09:41;;;;;;;1999.90;999.90;;;11.50;99.90;;;;;;5088945;28;20160;-40
2021/05/26 07:12:09;;;;;;;1999.90;999.90;;;11.90;99.90;;;;;;5087991;28;20168;-42
2021/05/26 07:14:37;;;;;;;1999.90;999.90;;;12.40;99.90;;;;;;5086975;28;20168;-41
2021/05/26 07:17:04;;;;;;;1999.90;999.90;;;12.50;99.90;;;;;;5085900;28;20194;-41
2021/05/26 07:19:31;;;;;;;1999.90;999.90;;;12.50;99.90;;;;;;5086683;28;20814;-40
2021/05/26 07:21:58;;;;;;;1999.90;999.90;;;12.50;99.90;;;;;;5084149;28;20195;-49
2021/05/26 07:24:24;;;;;;;1999.90;999.90;;;12.80;99.90;;;;;;5074855;28;20183;-46
2021/05/26 07:26:51;;;;;;;1999.90;999.90;;;12.80;99.90;;;;;;5078965;28;20251;-45
2021/05/26 07:29:18;;;;;;;1999.90;999.90;;;12.50;99.90;;;;;;5086751;28;20579;-44
2021/05/26 07:31:45;;;;;;;1999.90;999.90;;;12.70;99.90;;;;;;5074037;28;20164;-47
2021/05/26 07:34:11;;;;;;;1999.90;999.90;;;12.50;99.90;;;;;;5074215;28;20615;-50
2021/05/26 07:36:38;;;;;;;1999.90;999.90;;;12.40;99.90;;;;;;5074623;28;20619;-43
2021/05/26 07:39:06;;;;;;;1999.90;999.90;;;12.70;99.90;;;;;;5065489;28;20674;-42
2021/05/26 07:41:32;;;;;;;1999.90;999.90;;;13.40;99.90;;;;;;5063655;28;20173;-43
2021/05/26 07:43:59;;;;;;;1999.90;999.90;;;13.20;99.90;;;;;;5057930;28;20191;-47
2021/05/26 07:46:26;;;;;;;1999.90;999.90;;;13.10;99.90;;;;;;5060074;28;20180;-46
2021/05/26 07:48:53;;;;;;;1999.90;999.90;;;13.20;99.90;;;;;;5058526;28;20264;-47
2021/05/26 07:51:31;;;;;;;1999.90;999.90;;;13.40;99.90;;;;;;5055804;28;20631;-46
2021/05/26 07:53:58;;;;;;;1999.90;999.90;;;13.80;99.90;;;;;;5072463;28;20181;-45
2021/05/26 07:56:25;;;;;;;1999.90;999.90;;;14.10;99.90;;;;;;5066223;28;20180;-48
2021/05/26 07:58:51;;;;;;;1999.90;999.90;;;14.10;99.90;;;;;;5058978;28;20212;-46
2021/05/26 08:01:18;;;;;;;1999.90;999.90;;;14.20;99.90;;;;;;5070096;28;20251;-45
2021/05/26 08:03:45;;;;;;;1999.90;999.90;;;14.30;99.90;;;;;;5053877;28;20256;-45
2021/05/26 08:06:12;;;;;;;1999.90;999.90;;;14.30;99.90;;;;;;5054406;28;20252;-45
2021/05/26 08:08:40;;;;;;;1999.90;999.90;;;14.20;99.90;;;;;;5063595;28;20542;-45
2021/05/26 08:11:07;;;;;;;1999.90;999.90;;;14.10;99.90;;;;;;5070991;28;20172;-45
2021/05/26 08:13:34;;;;;;;1999.90;999.90;;;14.10;99.90;;;;;;5070706;28;20180;-46
2021/05/26 08:16:01;;;;;;;1999.90;999.90;;;14.10;99.90;;;;;;5062024;28;20169;-46
2021/05/26 08:18:27;;;;;;;1999.90;999.90;;;14.10;99.90;;;;;;5060671;28;20219;-56
2021/05/26 08:20:54;;;;;;;1999.90;999.90;;;14.20;99.90;;;;;;5068144;28;20214;-45
2021/05/26 08:23:22;;;;;;;1999.90;999.90;;;14.30;99.90;;;;;;5063928;28;20183;-45
2021/05/26 08:25:49;;;;;;;1999.90;999.90;;;14.20;99.90;;;;;;5073847;28;20172;-46
2021/05/26 08:28:16;;;;;;;1999.90;999.90;;;14.20;99.90;;;;;;5073774;28;20164;-54
2021/05/26 08:30:44;;;;;;;1999.90;999.90;;;14.10;99.90;;;;;;5072731;28;20200;-52
2021/05/26 08:33:12;;;;;;;1999.90;999.90;;;14.00;99.90;;;;;;5073263;28;20518;-47
2021/05/26 08:35:39;;;;;;;1999.90;999.90;;;13.90;99.90;;;;;;5073077;28;20634;-44
2021/05/26 08:38:05;;;;;;;1999.90;999.90;;;13.90;99.90;;;;;;5073072;28;20197;-50
2021/05/26 08:40:32;;;;;;;1999.90;999.90;;;13.90;99.90;;;;;;5073514;28;20221;-57
2021/05/26 08:42:59;;;;;;;1999.90;999.90;;;14.00;99.90;;;;;;5072148;28;20165;-49
2021/05/26 08:45:26;;;;;;;1999.90;999.90;;;14.10;99.90;;;;;;5069733;28;20546;-43
2021/05/26 08:47:56;;;;;;;1999.90;999.90;;;14.10;99.90;;;;;;5050955;28;20181;-44
2021/05/26 08:50:23;;;;;;;1999.90;999.90;;;14.20;99.90;;;;;;5050974;28;20262;-47
2021/05/26 08:52:50;;;;;;;1999.90;999.90;;;14.40;99.90;;;;;;5051867;28;20161;-48
2021/05/26 08:55:17;;;;;;;1999.90;999.90;;;14.50;99.90;;;;;;5050304;28;20180;-57
2021/05/26 08:57:44;;;;;;;1999.90;999.90;;;14.70;99.90;;;;;;5050993;28;20658;-50
2021/05/26 09:00:12;;;;;;;1999.90;999.90;;;14.80;99.90;;;;;;5051509;28;20223;-58
2021/05/26 09:02:39;;;;;;;1999.90;999.90;;;14.90;99.90;;;;;;5051395;28;20177;-57
2021/05/26 09:05:25;;;;;;;1999.90;999.90;;;15.10;99.90;;;;;;5051762;28;20510;-50
2021/05/26 09:07:52;;;;;;;1999.90;999.90;;;15.30;99.90;;;;;;5053307;28;20219;-51
2021/05/26 09:10:19;;;;;;;1999.90;999.90;;;15.40;99.90;;;;;;5052730;28;20570;-48
2021/05/26 09:12:47;;;;;;;1999.90;999.90;;;15.50;99.90;;;;;;5051520;28;20180;-48
2021/05/26 09:15:20;;;;;;;1999.90;999.90;;;15.50;99.90;;;;;;5052317;28;20187;-52
2021/05/26 09:17:54;;;;;;;1999.90;999.90;;;15.60;99.90;;;;;;5052618;28;20157;-49
2021/05/26 09:20:24;;;;;;;1999.90;999.90;;;15.80;99.90;;;;;;5051750;28;20519;-49
2021/05/26 09:23:10;;;;;;;1999.90;999.90;;;15.90;99.90;;;;;;5052809;28;20173;-51
2021/05/26 09:25:46;;;;;;;1999.90;999.90;;;16.00;99.70;;;;;;5052035;28;20169;-49
2021/05/26 09:28:21;;;;;;;1999.90;999.90;;;16.40;99.90;;;;;;5052130;28;20165;-54
2021/05/26 09:30:56;;;;;;;1999.90;999.90;;;17.10;99.90;;;;;;5052665;28;20643;-53
2021/05/26 09:33:44;;;;;;;1999.90;999.90;;;17.30;96.90;;;;;;5051762;28;20176;-52
2021/05/26 09:36:22;;;;;;;1999.90;999.90;;;17.90;95.30;;;;;;5052287;28;20160;-47
2021/05/26 09:38:56;;;;;;;1999.90;999.90;;;17.60;95.90;;;;;;5052465;28;20262;-46
2021/05/26 09:41:29;;;;;;;1999.90;999.90;;;18.10;94.80;;;;;;5051719;28;20173;-45
2021/05/26 09:43:58;;;;;;;1999.90;999.90;;;18.60;93.90;;;;;;5051597;28;20180;-46
2021/05/26 09:46:33;;;;;;;1999.90;999.90;;;19.00;94.10;;;;;;5051537;28;20193;-45
2021/05/26 09:49:09;;;;;;;1999.90;999.90;;;19.00;92.20;;;;;;5051416;28;20215;-45
2021/05/26 09:51:59;;;;;;;1999.90;999.90;;;19.80;91.20;;;;;;5051993;28;20581;-48
2021/05/26 09:54:32;;;;;;;1999.90;999.90;;;20.00;81.90;;;;;;5051469;28;20193;-54
2021/05/26 09:57:06;;;;;;;1999.90;999.90;;;19.70;81.90;;;;;;5051847;28;20165;-45
2021/05/26 09:59:35;;;;;;;1999.90;999.90;;;19.70;84.60;;;;;;5051814;28;20214;-51
2021/05/26 10:02:10;;;;;;;1999.90;999.90;;;20.00;86.90;;;;;;5051192;28;20506;-50
2021/05/26 10:04:42;;;;;;;1999.90;999.90;;;20.40;79.90;;;;;;5051818;28;20497;-51
2021/05/26 10:07:10;;;;;;;1999.90;999.90;;;20.20;76.10;;;;;;5051980;28;20172;-51
2021/05/26 10:09:38;;;;;;;1999.90;999.90;;;20.10;79.70;;;;;;5051275;28;20196;-43
2021/05/26 10:12:07;;;;;;;1999.90;999.90;;;20.50;81.70;;;;;;5052015;28;20248;-43
2021/05/26 10:14:36;;;;;;;1999.90;999.90;;;20.90;73.80;;;;;;5051633;28;20177;-49
2021/05/26 10:17:05;;;;;;;1999.90;999.90;;;20.70;74.20;;;;;;5051166;28;20170;-59
2021/05/26 10:19:32;;;;;;;1999.90;999.90;;;20.90;76.00;;;;;;5051659;28;20204;-51
2021/05/26 10:22:00;;;;;;;1999.90;999.90;;;21.30;72.40;;;;;;5051677;28;20533;-52
2021/05/26 10:24:27;;;;;;;1999.90;999.90;;;20.90;73.70;;;;;;5051057;28;20177;-49
2021/05/26 10:27:02;;;;;;;1999.90;999.90;;;20.60;76.00;;;;;;5051827;28;20197;-44
2021/05/26 10:29:33;;;;;;;1999.90;999.90;;;20.40;76.70;;;;;;5051751;28;20720;-47
2021/05/26 10:32:16;;;;;;;1999.90;999.90;;;20.00;75.70;;;;;;5051064;28;20635;-45
2021/05/26 10:34:43;;;;;;;1999.90;999.90;;;20.10;77.60;;;;;;5051950;28;20153;-45
2021/05/26 10:37:30;;;;;;;1999.90;999.90;;;19.90;77.80;;;;;;5050332;28;20176;-44
2021/05/26 10:39:57;;;;;;;1999.90;999.90;;;20.10;79.20;;;;;;5031577;28;20751;-44
2021/05/26 10:42:29;;;;;;;1999.90;999.90;;;20.70;77.60;;;;;;5031895;28;20158;-43
2021/05/26 10:45:09;;;;;;;1999.90;999.90;;;21.00;72.00;;;;;;5030640;28;20173;-47
2021/05/26 10:47:39;;;;;;;1999.90;999.90;;;21.60;68.40;;;;;;5032136;28;20215;-45
2021/05/26 10:50:25;;;;;;;1999.90;999.90;;;21.90;64.20;;;;;;5031416;28;20178;-44
2021/05/26 10:52:55;;;;;;;1999.90;999.90;;;21.80;62.20;;;;;;5031151;28;20296;-46
2021/05/26 10:55:44;;;;;;;1999.90;999.90;;;21.90;64.10;;;;;;5031740;28;20174;-47
2021/05/26 10:58:41;;;;;;;1999.90;999.90;;;22.10;70.00;;;;;;5031576;28;20214;-48
2021/05/26 11:01:10;;;;;;;1999.90;999.90;;;22.70;62.40;;;;;;5031495;28;20528;-55
2021/05/26 11:03:39;;;;;;;1999.90;999.90;;;22.60;60.40;;;;;;5031937;28;20186;-45
2021/05/26 11:06:10;;;;;;;1999.90;999.90;;;22.30;61.50;;;;;;5033562;28;20182;-54
2021/05/26 11:11:28;;;;;;;1999.90;999.90;;;22.20;60.80;;;;;;5035435;28;20648;-46
2021/05/26 11:14:18;;;;;;;1999.90;999.90;;;22.40;59.90;;;;;;5034881;28;20166;-48
2021/05/26 11:16:47;;;;;;;1999.90;999.90;;;22.10;63.90;;;;;;5035030;28;20193;-47
2021/05/26 11:19:21;;;;;;;1999.90;999.90;;;21.90;68.70;;;;;;5034978;28;20544;-49
2021/05/26 11:22:03;;;;;;;1999.90;999.90;;;21.90;69.40;;;;;;5034394;28;20174;-48
2021/05/26 11:24:41;;;;;;;1999.90;999.90;;;21.50;69.10;;;;;;5035280;28;20570;-54
2021/05/26 11:27:22;;;;;;;1999.90;999.90;;;21.30;70.30;;;;;;5034349;28;20169;-51
2021/05/26 11:29:55;;;;;;;1999.90;999.90;;;21.70;68.50;;;;;;5034629;28;20746;-48
2021/05/26 11:32:24;;;;;;;1999.90;999.90;;;22.00;68.40;;;;;;5035229;28;20188;-50
2021/05/26 11:34:54;;;;;;;1999.90;999.90;;;22.10;64.50;;;;;;5032845;28;20172;-57
2021/05/26 11:37:37;;;;;;;1999.90;999.90;;;21.70;68.70;;;;;;5035034;28;20223;-47
2021/05/26 11:40:26;;;;;;;1999.90;999.90;;;21.60;70.00;;;;;;5034723;28;20193;-48
2021/05/26 11:42:55;;;;;;;1999.90;999.90;;;21.50;72.30;;;;;;5034126;28;20170;-51
2021/05/26 11:45:22;;;;;;;1999.90;999.90;;;21.40;68.40;;;;;;5034780;28;20236;-47
2021/05/26 11:47:52;;;;;;;1999.90;999.90;;;21.80;76.10;;;;;;5034887;28;20181;-49
2021/05/26 11:50:20;;;;;;;1999.90;999.90;;;22.40;69.30;;;;;;5033883;28;20181;-47
2021/05/26 11:52:50;;;;;;;1999.90;999.90;;;22.60;67.60;;;;;;5034416;28;20178;-47
2021/05/26 11:55:22;;;;;;;1999.90;999.90;;;22.40;69.90;;;;;;5034106;28;20476;-51
2021/05/26 11:57:52;;;;;;;1999.90;999.90;;;22.10;69.80;;;;;;5033092;28;20253;-46
2021/05/26 12:00:26;;;;;;;1999.90;999.90;;;21.60;69.40;;;;;;5034528;28;20209;-52
2021/05/26 12:02:58;;;;;;;1999.90;999.90;;;21.70;71.00;;;;;;5034126;28;20528;-56
2021/05/26 12:05:46;;;;;;;1999.90;999.90;;;21.70;70.90;;;;;;5034021;28;20174;-58
2021/05/26 12:08:23;;;;;;;1999.90;999.90;;;21.60;70.30;;;;;;5034464;28;20252;-55
2021/05/26 12:10:56;;;;;;;1999.90;999.90;;;21.50;69.00;;;;;;5033426;28;20162;-52
2021/05/26 12:13:27;;;;;;;1999.90;999.90;;;21.30;74.50;;;;;;5033998;28;20185;-53
2021/05/26 12:15:58;;;;;;;1999.90;999.90;;;21.60;73.30;;;;;;5034033;28;20208;-53
2021/05/26 12:18:25;;;;;;;1999.90;999.90;;;21.70;70.20;;;;;;5033467;28;20185;-57
2021/05/26 12:20:53;;;;;;;1999.90;999.90;;;21.80;71.20;;;;;;5034058;28;20189;-59
2021/05/26 12:23:36;;;;;;;1999.90;999.90;;;21.70;72.90;;;;;;5034137;28;20170;-56
2021/05/26 12:26:27;;;;;;;1999.90;999.90;;;21.80;69.10;;;;;;5033584;28;20166;-52
2021/05/26 12:28:56;;;;;;;1999.90;999.90;;;21.90;71.90;;;;;;5033688;28;20750;-57
2021/05/26 12:31:27;;;;;;;1999.90;999.90;;;22.10;70.00;;;;;;5033168;28;20240;-54
2021/05/26 12:33:58;;;;;;;1999.90;999.90;;;22.20;70.60;;;;;;5033697;28;20576;-57
2021/05/26 12:36:27;;;;;;;1999.90;999.90;;;21.90;69.20;;;;;;5034281;28;20166;-51
2021/05/26 12:38:59;;;;;;;1999.90;999.90;;;22.10;69.20;;;;;;5032712;28;20202;-50
2021/05/26 12:41:38;;;;;;;1999.90;999.90;;;22.30;69.50;;;;;;5033653;28;20170;-56
2021/05/26 12:44:11;;;;;;;1999.90;999.90;;;22.10;70.30;;;;;;5033237;28;20301;-53